sensor_id;sensor_type;location;lat;lon;timestamp;pressure;altitude;pressure_sealevel;temperature;humidity
18850;BME280;4989;48.772;9.154;2023-12-14T00:02:34;96956.19;;;7.19;100.00
18850;BME280;4989;48.772;9.154;2023-12-14T00:07:37;96959.06;;;7.12;100.00
18850;BME280;4989;48.772;9.154;2023-12-14T00:12:40;96964.97;;;7.23;100.00
18850;BME280;4989;48.772;9.154;2023-12-14T00:17:42;96979.41;;;7.17;100.00
18850;BME280;4989;48.772;9.154;2023-12-14T00:22:45;96982.03;;;7.20;100.00
18850;BME280;4989;48.772;9.154;2023-12-14T00:27:48;96984.56;;;7.11;100.00
18850;BME280;4989;48.772;9.154;2023-12-14T00:32:50;96976.81;;;6.97;100.00
18850;BME280;4989;48.772;9.154;2023-12-14T00:37:53;96992.13;;;6.83;100.00
18850;BME280;4989;48.772;9.154;2023-12-14T00:42:55;97002.63;;;6.81;100.00
18850;BME280;4989;48.772;9.154;2023-12-14T00:47:58;97006.34;;;7.04;100.00
18850;BME280;4989;48.772;9.154;2023-12-14T00:53:00;97006.50;;;6.97;100.00
18850;BME280;4989;48.772;9.154;2023-12-14T00:58:03;97015.94;;;6.88;100.00
18850;BME280;4989;48.772;9.154;2023-12-14T01:03:06;97017.81;;;6.92;100.00
18850;BME280;4989;48.772;9.154;2023-12-14T01:08:08;97028.53;;;7.28;100.00
18850;BME280;4989;48.772;9.154;2023-12-14T01:13:11;97030.09;;;7.74;100.00
18850;BME280;4989;48.772;9.154;2023-12-14T01:18:14;97038.75;;;8.27;100.00
18850;BME280;4989;48.772;9.154;2023-12-14T01:23:16;97045.88;;;8.21;100.00
18850;BME280;4989;48.772;9.154;2023-12-14T01:28:19;97066.50;;;7.86;100.00
18850;BME280;4989;48.772;9.154;2023-12-14T01:33:22;97062.94;;;9.02;100.00
18850;BME280;4989;48.772;9.154;2023-12-14T01:38:24;97076.38;;;8.93;100.00
18850;BME280;4989;48.772;9.154;2023-12-14T01:43:27;97087.16;;;8.67;100.00
18850;BME280;4989;48.772;9.154;2023-12-14T01:48:29;97097.50;;;8.14;100.00
18850;BME280;4989;48.772;9.154;2023-12-14T01:53:32;97098.22;;;7.69;100.00
18850;BME280;4989;48.772;9.154;2023-12-14T01:58:35;97100.09;;;7.40;100.00
18850;BME280;4989;48.772;9.154;2023-12-14T02:03:43;97103.63;;;7.69;100.00
18850;BME280;4989;48.772;9.154;2023-12-14T02:08:46;97118.44;;;8.26;100.00
18850;BME280;4989;48.772;9.154;2023-12-14T02:13:48;97119.66;;;8.09;100.00
18850;BME280;4989;48.772;9.154;2023-12-14T02:18:51;97124.53;;;7.69;100.00
18850;BME280;4989;48.772;9.154;2023-12-14T02:23:54;97133.22;;;7.60;100.00
18850;BME280;4989;48.772;9.154;2023-12-14T02:28:56;97133.03;;;8.00;100.00
18850;BME280;4989;48.772;9.154;2023-12-14T02:33:59;97136.13;;;7.98;100.00
18850;BME280;4989;48.772;9.154;2023-12-14T02:39:01;97135.47;;;7.94;100.00
18850;BME280;4989;48.772;9.154;2023-12-14T02:44:04;97147.47;;;8.10;100.00
18850;BME280;4989;48.772;9.154;2023-12-14T02:49:06;97154.25;;;8.47;100.00
18850;BME280;4989;48.772;9.154;2023-12-14T02:54:09;97149.31;;;8.87;100.00
18850;BME280;4989;48.772;9.154;2023-12-14T02:59:12;97155.88;;;8.74;100.00
18850;BME280;4989;48.772;9.154;2023-12-14T03:04:14;97167.28;;;8.52;100.00
18850;BME280;4989;48.772;9.154;2023-12-14T03:09:17;97170.59;;;8.73;100.00
18850;BME280;4989;48.772;9.154;2023-12-14T03:14:21;97179.50;;;8.73;100.00
18850;BME280;4989;48.772;9.154;2023-12-14T03:19:24;97175.53;;;8.61;100.00
18850;BME280;4989;48.772;9.154;2023-12-14T03:24:26;97192.75;;;8.84;100.00
18850;BME280;4989;48.772;9.154;2023-12-14T03:29:29;97197.75;;;8.98;100.00
18850;BME280;4989;48.772;9.154;2023-12-14T03:34:31;97208.47;;;9.31;100.00
18850;BME280;4989;48.772;9.154;2023-12-14T03:39:34;97211.25;;;9.14;100.00
18850;BME280;4989;48.772;9.154;2023-12-14T03:44:36;97227.56;;;8.98;100.00
18850;BME280;4989;48.772;9.154;2023-12-14T03:49:39;97240.75;;;9.25;100.00
18850;BME280;4989;48.772;9.154;2023-12-14T03:54:42;97245.56;;;9.34;100.00
18850;BME280;4989;48.772;9.154;2023-12-14T03:59:44;97252.59;;;8.44;100.00
18850;BME280;4989;48.772;9.154;2023-12-14T04:04:47;97259.56;;;7.76;100.00
18850;BME280;4989;48.772;9.154;2023-12-14T04:09:49;97266.97;;;7.55;100.00
18850;BME280;4989;48.772;9.154;2023-12-14T04:14:52;97279.88;;;7.48;100.00
18850;BME280;4989;48.772;9.154;2023-12-14T04:19:54;97288.97;;;7.74;100.00
18850;BME280;4989;48.772;9.154;2023-12-14T04:24:57;97295.59;;;7.53;100.00
18850;BME280;4989;48.772;9.154;2023-12-14T04:30:00;97294.22;;;7.45;100.00
18850;BME280;4989;48.772;9.154;2023-12-14T04:35:03;97308.47;;;7.65;100.00
18850;BME280;4989;48.772;9.154;2023-12-14T04:40:05;97300.81;;;8.33;100.00
18850;BME280;4989;48.772;9.154;2023-12-14T04:45:08;97320.09;;;8.67;100.00
18850;BME280;4989;48.772;9.154;2023-12-14T04:50:15;97323.72;;;8.77;100.00
18850;BME280;4989;48.772;9.154;2023-12-14T04:55:17;97324.13;;;8.92;100.00
18850;BME280;4989;48.772;9.154;2023-12-14T05:00:21;97333.13;;;8.56;100.00
18850;BME280;4989;48.772;9.154;2023-12-14T05:05:23;97342.28;;;8.46;100.00
18850;BME280;4989;48.772;9.154;2023-12-14T05:10:26;97349.16;;;8.51;100.00
18850;BME280;4989;48.772;9.154;2023-12-14T05:15:28;97354.06;;;8.19;100.00
18850;BME280;4989;48.772;9.154;2023-12-14T05:20:31;97367.94;;;8.05;100.00
18850;BME280;4989;48.772;9.154;2023-12-14T05:25:34;97370.28;;;8.03;100.00
18850;BME280;4989;48.772;9.154;2023-12-14T05:30:36;97381.88;;;8.40;100.00
18850;BME280;4989;48.772;9.154;2023-12-14T05:35:39;97398.47;;;9.07;100.00
18850;BME280;4989;48.772;9.154;2023-12-14T05:40:41;97403.25;;;8.87;100.00
18850;BME280;4989;48.772;9.154;2023-12-14T05:45:45;97415.25;;;8.69;100.00
18850;BME280;4989;48.772;9.154;2023-12-14T05:50:47;97432.31;;;9.32;100.00
18850;BME280;4989;48.772;9.154;2023-12-14T05:55:50;97432.25;;;9.64;100.00
18850;BME280;4989;48.772;9.154;2023-12-14T06:00:52;97436.94;;;8.86;100.00
18850;BME280;4989;48.772;9.154;2023-12-14T06:05:55;97439.25;;;7.95;100.00
18850;BME280;4989;48.772;9.154;2023-12-14T06:10:58;97443.34;;;7.63;100.00
18850;BME280;4989;48.772;9.154;2023-12-14T06:16:00;97449.22;;;7.58;100.00
18850;BME280;4989;48.772;9.154;2023-12-14T06:21:03;97461.63;;;7.99;100.00
18850;BME280;4989;48.772;9.154;2023-12-14T06:26:06;97471.25;;;8.56;100.00
18850;BME280;4989;48.772;9.154;2023-12-14T06:31:12;97477.50;;;8.73;100.00
18850;BME280;4989;48.772;9.154;2023-12-14T06:36:17;97480.94;;;8.74;100.00
18850;BME280;4989;48.772;9.154;2023-12-14T06:41:20;97499.72;;;8.64;100.00
18850;BME280;4989;48.772;9.154;2023-12-14T06:46:27;97505.59;;;8.43;100.00
18850;BME280;4989;48.772;9.154;2023-12-14T06:51:29;97512.31;;;7.95;100.00
18850;BME280;4989;48.772;9.154;2023-12-14T06:56:32;97526.91;;;8.41;100.00
18850;BME280;4989;48.772;9.154;2023-12-14T07:01:34;97543.69;;;8.72;100.00
18850;BME280;4989;48.772;9.154;2023-12-14T07:06:37;97557.41;;;8.45;100.00
18850;BME280;4989;48.772;9.154;2023-12-14T07:11:39;97573.34;;;8.59;100.00
18850;BME280;4989;48.772;9.154;2023-12-14T07:16:42;97590.59;;;8.49;100.00
18850;BME280;4989;48.772;9.154;2023-12-14T07:21:45;97592.19;;;8.46;100.00
18850;BME280;4989;48.772;9.154;2023-12-14T07:26:47;97605.78;;;8.43;100.00
18850;BME280;4989;48.772;9.154;2023-12-14T07:31:50;97613.16;;;7.99;100.00
18850;BME280;4989;48.772;9.154;2023-12-14T07:36:53;97617.38;;;7.76;100.00
18850;BME280;4989;48.772;9.154;2023-12-14T07:41:56;97628.94;;;7.77;100.00
18850;BME280;4989;48.772;9.154;2023-12-14T07:46:59;97633.84;;;8.09;100.00
18850;BME280;4989;48.772;9.154;2023-12-14T07:52:02;97642.41;;;8.04;100.00
18850;BME280;4989;48.772;9.154;2023-12-14T07:57:05;97642.78;;;7.83;100.00
18850;BME280;4989;48.772;9.154;2023-12-14T08:02:07;97642.91;;;7.75;100.00
18850;BME280;4989;48.772;9.154;2023-12-14T08:07:10;97652.41;;;8.07;100.00
18850;BME280;4989;48.772;9.154;2023-12-14T08:12:13;97665.72;;;8.45;100.00
18850;BME280;4989;48.772;9.154;2023-12-14T08:17:15;97673.59;;;8.79;100.00
18850;BME280;4989;48.772;9.154;2023-12-14T08:22:18;97682.28;;;8.70;100.00
18850;BME280;4989;48.772;9.154;2023-12-14T08:27:23;97702.75;;;8.52;100.00
18850;BME280;4989;48.772;9.154;2023-12-14T08:32:25;97714.19;;;8.59;100.00
18850;BME280;4989;48.772;9.154;2023-12-14T08:37:28;97713.84;;;8.34;100.00
18850;BME280;4989;48.772;9.154;2023-12-14T08:42:31;97729.50;;;8.22;100.00
18850;BME280;4989;48.772;9.154;2023-12-14T08:47:34;97740.00;;;8.44;100.00
18850;BME280;4989;48.772;9.154;2023-12-14T08:52:36;97755.44;;;8.47;100.00
18850;BME280;4989;48.772;9.154;2023-12-14T08:57:40;97767.50;;;8.66;100.00
18850;BME280;4989;48.772;9.154;2023-12-14T09:02:42;97784.31;;;8.77;100.00
18850;BME280;4989;48.772;9.154;2023-12-14T09:07:46;97792.81;;;8.29;100.00
18850;BME280;4989;48.772;9.154;2023-12-14T09:12:49;97797.97;;;8.23;100.00
18850;BME280;4989;48.772;9.154;2023-12-14T09:17:52;97801.06;;;8.48;100.00
18850;BME280;4989;48.772;9.154;2023-12-14T09:22:55;97813.38;;;8.53;100.00
18850;BME280;4989;48.772;9.154;2023-12-14T09:27:58;97822.06;;;8.41;100.00
18850;BME280;4989;48.772;9.154;2023-12-14T09:33:00;97826.81;;;8.33;100.00
18850;BME280;4989;48.772;9.154;2023-12-14T09:38:04;97834.34;;;8.49;100.00
18850;BME280;4989;48.772;9.154;2023-12-14T09:43:06;97848.03;;;8.65;100.00
18850;BME280;4989;48.772;9.154;2023-12-14T09:48:11;97847.25;;;8.88;100.00
18850;BME280;4989;48.772;9.154;2023-12-14T09:53:14;97852.97;;;8.94;100.00
18850;BME280;4989;48.772;9.154;2023-12-14T09:58:16;97859.56;;;8.69;100.00
18850;BME280;4989;48.772;9.154;2023-12-14T10:03:23;97869.56;;;8.73;100.00
18850;BME280;4989;48.772;9.154;2023-12-14T10:08:28;97867.69;;;8.93;100.00
18850;BME280;4989;48.772;9.154;2023-12-14T10:13:37;97866.16;;;9.55;100.00
18850;BME280;4989;48.772;9.154;2023-12-14T10:18:40;97874.88;;;9.67;100.00
18850;BME280;4989;48.772;9.154;2023-12-14T10:23:44;97878.06;;;9.61;100.00
18850;BME280;4989;48.772;9.154;2023-12-14T10:28:49;97887.53;;;9.53;100.00
18850;BME280;4989;48.772;9.154;2023-12-14T10:33:52;97892.47;;;9.78;100.00
18850;BME280;4989;48.772;9.154;2023-12-14T10:38:56;97891.50;;;10.25;100.00
18850;BME280;4989;48.772;9.154;2023-12-14T10:43:59;97909.00;;;10.24;100.00
18850;BME280;4989;48.772;9.154;2023-12-14T10:49:25;97920.69;;;10.41;100.00
18850;BME280;4989;48.772;9.154;2023-12-14T10:54:28;97917.75;;;10.51;100.00
18850;BME280;4989;48.772;9.154;2023-12-14T10:59:33;97927.88;;;10.67;100.00
18850;BME280;4989;48.772;9.154;2023-12-14T11:04:53;97930.34;;;10.78;100.00
18850;BME280;4989;48.772;9.154;2023-12-14T11:09:56;97941.19;;;10.62;100.00
18850;BME280;4989;48.772;9.154;2023-12-14T11:14:59;97941.41;;;11.65;100.00
18850;BME280;4989;48.772;9.154;2023-12-14T11:25:23;97940.22;;;10.72;100.00
18850;BME280;4989;48.772;9.154;2023-12-14T11:30:41;97940.97;;;10.72;100.00
18850;BME280;4989;48.772;9.154;2023-12-14T11:35:56;97950.91;;;10.79;100.00
18850;BME280;4989;48.772;9.154;2023-12-14T11:40:59;97959.91;;;11.25;100.00
18850;BME280;4989;48.772;9.154;2023-12-14T11:46:02;97965.53;;;10.85;100.00
18850;BME280;4989;48.772;9.154;2023-12-14T11:51:05;97978.59;;;10.74;100.00
18850;BME280;4989;48.772;9.154;2023-12-14T11:56:08;97977.72;;;10.61;100.00
18850;BME280;4989;48.772;9.154;2023-12-14T12:06:21;97993.09;;;10.31;100.00
18850;BME280;4989;48.772;9.154;2023-12-14T12:11:25;98003.59;;;10.49;100.00
18850;BME280;4989;48.772;9.154;2023-12-14T12:16:30;98005.16;;;10.30;100.00
18850;BME280;4989;48.772;9.154;2023-12-14T12:21:33;98011.59;;;10.16;100.00
18850;BME280;4989;48.772;9.154;2023-12-14T12:26:36;98019.50;;;9.87;100.00
18850;BME280;4989;48.772;9.154;2023-12-14T12:31:38;98031.00;;;9.95;100.00
18850;BME280;4989;48.772;9.154;2023-12-14T12:36:42;98022.88;;;10.15;100.00
18850;BME280;4989;48.772;9.154;2023-12-14T12:41:44;98039.00;;;9.35;100.00
18850;BME280;4989;48.772;9.154;2023-12-14T12:46:47;98032.66;;;8.91;100.00
18850;BME280;4989;48.772;9.154;2023-12-14T12:52:03;98032.59;;;8.67;100.00
18850;BME280;4989;48.772;9.154;2023-12-14T12:57:06;98028.63;;;8.45;100.00
18850;BME280;4989;48.772;9.154;2023-12-14T13:02:08;98028.63;;;8.45;100.00
18850;BME280;4989;48.772;9.154;2023-12-14T13:07:14;98040.88;;;8.53;100.00
18850;BME280;4989;48.772;9.154;2023-12-14T13:12:17;98046.28;;;8.53;100.00
18850;BME280;4989;48.772;9.154;2023-12-14T13:17:19;98054.69;;;8.28;100.00
18850;BME280;4989;48.772;9.154;2023-12-14T13:22:22;98057.53;;;8.14;100.00
18850;BME280;4989;48.772;9.154;2023-12-14T13:27:24;98068.13;;;8.01;100.00
18850;BME280;4989;48.772;9.154;2023-12-14T13:32:27;98073.09;;;8.06;100.00
18850;BME280;4989;48.772;9.154;2023-12-14T13:37:30;98073.16;;;8.37;100.00
18850;BME280;4989;48.772;9.154;2023-12-14T13:42:32;98092.00;;;8.51;100.00
18850;BME280;4989;48.772;9.154;2023-12-14T13:47:39;98102.44;;;8.83;100.00
18850;BME280;4989;48.772;9.154;2023-12-14T13:52:42;98103.22;;;8.84;100.00
18850;BME280;4989;48.772;9.154;2023-12-14T13:57:45;98121.34;;;8.56;100.00
18850;BME280;4989;48.772;9.154;2023-12-14T14:02:50;98126.06;;;8.48;100.00
18850;BME280;4989;48.772;9.154;2023-12-14T14:07:52;98134.25;;;8.45;100.00
18850;BME280;4989;48.772;9.154;2023-12-14T14:12:55;98139.19;;;8.54;100.00
18850;BME280;4989;48.772;9.154;2023-12-14T14:17:58;98157.34;;;8.91;100.00
18850;BME280;4989;48.772;9.154;2023-12-14T14:23:01;98159.91;;;8.67;100.00
18850;BME280;4989;48.772;9.154;2023-12-14T14:28:04;98172.88;;;8.87;100.00
18850;BME280;4989;48.772;9.154;2023-12-14T14:33:07;98187.94;;;9.22;100.00
18850;BME280;4989;48.772;9.154;2023-12-14T14:38:10;98203.47;;;9.18;100.00
18850;BME280;4989;48.772;9.154;2023-12-14T14:43:13;98211.09;;;8.96;100.00
18850;BME280;4989;48.772;9.154;2023-12-14T14:48:16;98213.81;;;8.58;100.00
18850;BME280;4989;48.772;9.154;2023-12-14T14:53:20;98227.81;;;8.91;100.00
18850;BME280;4989;48.772;9.154;2023-12-14T14:58:23;98235.06;;;8.63;100.00
18850;BME280;4989;48.772;9.154;2023-12-14T15:03:26;98231.13;;;8.23;100.00
18850;BME280;4989;48.772;9.154;2023-12-14T15:08:28;98242.13;;;7.98;100.00
18850;BME280;4989;48.772;9.154;2023-12-14T15:13:31;98245.31;;;7.86;100.00
18850;BME280;4989;48.772;9.154;2023-12-14T15:18:33;98273.47;;;7.92;100.00
18850;BME280;4989;48.772;9.154;2023-12-14T15:23:44;98280.47;;;7.86;100.00
18850;BME280;4989;48.772;9.154;2023-12-14T15:28:49;98288.53;;;8.00;100.00
18850;BME280;4989;48.772;9.154;2023-12-14T15:33:51;98291.28;;;7.89;100.00
18850;BME280;4989;48.772;9.154;2023-12-14T15:38:54;98301.13;;;8.24;100.00
18850;BME280;4989;48.772;9.154;2023-12-14T15:43:57;98314.00;;;8.65;100.00
18850;BME280;4989;48.772;9.154;2023-12-14T15:49:00;98321.91;;;8.35;100.00
18850;BME280;4989;48.772;9.154;2023-12-14T15:54:03;98332.53;;;8.08;100.00
18850;BME280;4989;48.772;9.154;2023-12-14T15:59:05;98336.16;;;7.87;100.00
18850;BME280;4989;48.772;9.154;2023-12-14T16:04:09;98341.63;;;7.72;100.00
18850;BME280;4989;48.772;9.154;2023-12-14T16:09:12;98350.88;;;7.71;100.00
18850;BME280;4989;48.772;9.154;2023-12-14T16:14:15;98358.59;;;7.76;100.00
18850;BME280;4989;48.772;9.154;2023-12-14T16:19:18;98363.63;;;7.74;100.00
18850;BME280;4989;48.772;9.154;2023-12-14T16:24:23;98360.16;;;7.74;100.00
18850;BME280;4989;48.772;9.154;2023-12-14T16:29:26;98373.31;;;7.68;100.00
18850;BME280;4989;48.772;9.154;2023-12-14T16:34:29;98376.41;;;7.70;100.00
18850;BME280;4989;48.772;9.154;2023-12-14T16:39:32;98384.91;;;7.65;100.00
18850;BME280;4989;48.772;9.154;2023-12-14T16:44:35;98401.94;;;7.66;100.00
18850;BME280;4989;48.772;9.154;2023-12-14T16:49:40;98408.09;;;7.70;100.00
18850;BME280;4989;48.772;9.154;2023-12-14T16:54:43;98417.41;;;7.58;100.00
18850;BME280;4989;48.772;9.154;2023-12-14T16:59:45;98433.63;;;7.58;100.00
18850;BME280;4989;48.772;9.154;2023-12-14T17:04:48;98447.91;;;7.58;100.00
18850;BME280;4989;48.772;9.154;2023-12-14T17:09:51;98457.53;;;7.77;100.00
18850;BME280;4989;48.772;9.154;2023-12-14T17:14:56;98464.53;;;7.64;100.00
18850;BME280;4989;48.772;9.154;2023-12-14T17:19:59;98465.28;;;7.68;100.00
18850;BME280;4989;48.772;9.154;2023-12-14T17:25:02;98484.63;;;7.56;100.00
18850;BME280;4989;48.772;9.154;2023-12-14T17:30:05;98489.56;;;8.04;100.00
18850;BME280;4989;48.772;9.154;2023-12-14T17:35:09;98497.66;;;8.11;100.00
18850;BME280;4989;48.772;9.154;2023-12-14T17:40:12;98506.09;;;8.31;100.00
18850;BME280;4989;48.772;9.154;2023-12-14T17:45:14;98506.78;;;8.60;100.00
18850;BME280;4989;48.772;9.154;2023-12-14T17:50:17;98512.69;;;8.26;100.00
18850;BME280;4989;48.772;9.154;2023-12-14T17:55:20;98537.94;;;7.59;100.00
18850;BME280;4989;48.772;9.154;2023-12-14T18:00:23;98542.59;;;7.33;100.00
18850;BME280;4989;48.772;9.154;2023-12-14T18:05:26;98544.09;;;7.13;100.00
18850;BME280;4989;48.772;9.154;2023-12-14T18:10:29;98556.47;;;7.25;100.00
18850;BME280;4989;48.772;9.154;2023-12-14T18:15:33;98568.88;;;7.51;100.00
18850;BME280;4989;48.772;9.154;2023-12-14T18:20:35;98580.47;;;7.48;100.00
18850;BME280;4989;48.772;9.154;2023-12-14T18:25:38;98578.91;;;7.93;100.00
18850;BME280;4989;48.772;9.154;2023-12-14T18:30:41;98598.25;;;7.99;100.00
18850;BME280;4989;48.772;9.154;2023-12-14T18:35:44;98607.50;;;7.91;100.00
18850;BME280;4989;48.772;9.154;2023-12-14T18:40:46;98612.16;;;8.08;100.00
18850;BME280;4989;48.772;9.154;2023-12-14T18:45:49;98616.75;;;8.29;100.00
18850;BME280;4989;48.772;9.154;2023-12-14T18:50:52;98631.41;;;8.49;100.00
18850;BME280;4989;48.772;9.154;2023-12-14T18:55:55;98642.28;;;8.42;100.00
18850;BME280;4989;48.772;9.154;2023-12-14T19:00:58;98651.19;;;7.86;100.00
18850;BME280;4989;48.772;9.154;2023-12-14T19:06:07;98664.75;;;8.14;100.00
18850;BME280;4989;48.772;9.154;2023-12-14T19:11:18;98650.81;;;7.69;100.00
18850;BME280;4989;48.772;9.154;2023-12-14T19:16:22;98658.94;;;7.69;100.00
18850;BME280;4989;48.772;9.154;2023-12-14T19:21:26;98674.00;;;7.95;100.00
18850;BME280;4989;48.772;9.154;2023-12-14T19:26:28;98685.22;;;8.30;100.00
18850;BME280;4989;48.772;9.154;2023-12-14T19:31:31;98682.13;;;8.49;100.00
18850;BME280;4989;48.772;9.154;2023-12-14T19:36:34;98680.16;;;8.53;100.00
18850;BME280;4989;48.772;9.154;2023-12-14T19:41:37;98697.59;;;8.48;100.00
18850;BME280;4989;48.772;9.154;2023-12-14T19:46:40;98709.59;;;8.40;100.00
18850;BME280;4989;48.772;9.154;2023-12-14T19:51:43;98718.88;;;8.50;100.00
18850;BME280;4989;48.772;9.154;2023-12-14T19:56:45;98723.50;;;8.64;100.00
18850;BME280;4989;48.772;9.154;2023-12-14T20:01:48;98742.09;;;8.69;100.00
18850;BME280;4989;48.772;9.154;2023-12-14T20:06:51;98746.34;;;8.66;100.00
18850;BME280;4989;48.772;9.154;2023-12-14T20:11:56;98751.72;;;8.88;100.00
18850;BME280;4989;48.772;9.154;2023-12-14T20:16:59;98769.94;;;8.91;100.00
18850;BME280;4989;48.772;9.154;2023-12-14T20:22:02;98774.59;;;8.76;100.00
18850;BME280;4989;48.772;9.154;2023-12-14T20:27:05;98781.56;;;8.84;100.00
18850;BME280;4989;48.772;9.154;2023-12-14T20:32:07;98792.41;;;8.88;100.00
18850;BME280;4989;48.772;9.154;2023-12-14T20:37:10;98798.22;;;8.76;100.00
18850;BME280;4989;48.772;9.154;2023-12-14T20:42:12;98809.06;;;8.76;100.00
18850;BME280;4989;48.772;9.154;2023-12-14T20:47:15;98826.47;;;8.89;100.00
18850;BME280;4989;48.772;9.154;2023-12-14T20:52:18;98831.13;;;8.74;100.00
18850;BME280;4989;48.772;9.154;2023-12-14T20:57:21;98843.50;;;8.57;100.00
18850;BME280;4989;48.772;9.154;2023-12-14T21:02:24;98853.19;;;8.47;100.00
18850;BME280;4989;48.772;9.154;2023-12-14T21:07:27;98862.47;;;8.57;100.00
18850;BME280;4989;48.772;9.154;2023-12-14T21:12:30;98869.06;;;8.70;100.00
18850;BME280;4989;48.772;9.154;2023-12-14T21:17:33;98868.28;;;8.63;100.00
18850;BME280;4989;48.772;9.154;2023-12-14T21:22:37;98874.38;;;8.20;100.00
18850;BME280;4989;48.772;9.154;2023-12-14T21:27:40;98884.31;;;7.88;100.00
18850;BME280;4989;48.772;9.154;2023-12-14T21:32:52;98891.38;;;8.14;100.00
18850;BME280;4989;48.772;9.154;2023-12-14T21:37:54;98909.88;;;7.97;100.00
18850;BME280;4989;48.772;9.154;2023-12-14T21:42:57;98901.47;;;8.35;100.00
18850;BME280;4989;48.772;9.154;2023-12-14T21:48:00;98918.50;;;8.24;100.00
18850;BME280;4989;48.772;9.154;2023-12-14T21:53:02;98925.56;;;8.54;100.00
18850;BME280;4989;48.772;9.154;2023-12-14T21:58:05;98929.81;;;8.52;100.00
18850;BME280;4989;48.772;9.154;2023-12-14T22:03:08;98940.97;;;8.36;100.00
18850;BME280;4989;48.772;9.154;2023-12-14T22:08:10;98951.34;;;8.19;100.00
18850;BME280;4989;48.772;9.154;2023-12-14T22:13:13;98947.84;;;8.12;100.00
18850;BME280;4989;48.772;9.154;2023-12-14T22:18:16;98952.44;;;8.04;100.00
18850;BME280;4989;48.772;9.154;2023-12-14T22:23:18;98964.94;;;7.57;100.00
18850;BME280;4989;48.772;9.154;2023-12-14T22:28:21;98977.41;;;7.17;100.00
18850;BME280;4989;48.772;9.154;2023-12-14T22:33:24;98974.59;;;7.54;100.00
18850;BME280;4989;48.772;9.154;2023-12-14T22:38:26;98984.94;;;8.08;100.00
18850;BME280;4989;48.772;9.154;2023-12-14T22:43:29;98987.56;;;9.67;100.00
18850;BME280;4989;48.772;9.154;2023-12-14T22:48:32;98996.53;;;9.35;100.00
18850;BME280;4989;48.772;9.154;2023-12-14T22:53:35;99001.44;;;10.04;100.00
18850;BME280;4989;48.772;9.154;2023-12-14T22:58:37;99007.75;;;9.58;100.00
18850;BME280;4989;48.772;9.154;2023-12-14T23:03:40;99016.28;;;9.50;100.00
18850;BME280;4989;48.772;9.154;2023-12-14T23:08:43;99026.94;;;8.46;100.00
18850;BME280;4989;48.772;9.154;2023-12-14T23:13:46;99045.06;;;6.87;100.00
18850;BME280;4989;48.772;9.154;2023-12-14T23:18:49;99043.44;;;6.15;100.00
18850;BME280;4989;48.772;9.154;2023-12-14T23:23:51;99045.31;;;5.88;100.00
18850;BME280;4989;48.772;9.154;2023-12-14T23:28:54;99045.66;;;5.60;100.00
18850;BME280;4989;48.772;9.154;2023-12-14T23:33:57;99063.22;;;5.50;100.00
18850;BME280;4989;48.772;9.154;2023-12-14T23:39:00;99069.88;;;5.33;100.00
18850;BME280;4989;48.772;9.154;2023-12-14T23:44:02;99080.34;;;5.38;100.00
18850;BME280;4989;48.772;9.154;2023-12-14T23:49:05;99091.84;;;5.35;100.00
18850;BME280;4989;48.772;9.154;2023-12-14T23:54:08;99099.16;;;5.35;100.00
18850;BME280;4989;48.772;9.154;2023-12-14T23:59:10;99101.47;;;5.33;100.00
